Moonbeam, Canada
Current Conditions -  °F | °C
As of 1:00 PM on Thursday 27 Nov 2014 (Local Time) from CYYU Reporting Station
Light Snow Light Snow  
Wind Chill: -14°   Ceiling: 22000
Heat Index: -2°   Visibility: 5mi
Dew Point: -9°   Wind: 6mph
Humidity: 71%   Direction: 360°N
Pressure: 30.26"   Gusts: NA
Location:  49.34°N, 82.15°W
Report Text: CYYU 271800Z 36005KT 340V040 5SM -SN FEW012 SCT030 BKN220 M19/M23 A3026 RMK SF2SC2CS3 SLP271
Loading
Personal Weather Stations






























Interactive Weather Map New forecast layout! Learn more

10-Day Weather Forecast

Advertisements
Track Severe Weather on mobile